^^
Datos históricos de la estación: Murcia-Puente Tocinos
Diario Informe para Abril 6, 2019 Unidades:  Ambas    Inglés   Métrico
Diario Semanal Mensual Anual Configurable
  Máximo: Mínimo: Media:
Temperatura: 63.9 °F /  17.7 °C 48 °F /  8.9 °C 55 °F /  12.8 °C
Punto de rocio: 46.2 °F /  7.9 °C 34.2 °F /  1.2 °C 39.6 °F /  4.2 °C
Humedad: 75% 34% 57%
Velocidad viento: 14.5mph /  23.3km/h - 4.2mph /  6.8km/h
Racha viento: 27.6mph /  44.4km/h - -
Viento- - SSW
Presión: 29.7 in /  1006.6 hPa 29.6 in /  1002.4 hPa -
Precipitación: 0.12 in /  3.0 mm    
Historical Graphs
 
 
Tabla de datos para Abril 6, 2019
Hora Temperatura Punto de rocio Presión Viento Velocidad viento Racha viento Humedad Intensidad lluvia(por hora) Nubes
00:00 51.1 °F /  10.6 °C 40.1 °F /  4.5 °C 29.6in /  1002.5hPa WNW 5mph /  8.0km/h 6mph /  9.7km/h 66% 0in /  0.0mm RA
00:05 51.1 °F /  10.6 °C 39.7 °F /  4.3 °C 29.6in /  1002.6hPa NW 4.7mph /  7.6km/h 4.6mph /  7.4km/h 65% 0in /  0.0mm RA
00:10 51.1 °F /  10.6 °C 39.7 °F /  4.3 °C 29.6in /  1002.6hPa WNW 3.6mph /  5.8km/h 3.5mph /  5.6km/h 65% 0in /  0.0mm CLR
00:15 50.9 °F /  10.5 °C 39.6 °F /  4.2 °C 29.6in /  1002.6hPa WNW 3.6mph /  5.8km/h 5.2mph /  8.4km/h 65% 0in /  0.0mm CLR
00:20 50.7 °F /  10.4 °C 39.7 °F /  4.3 °C 29.6in /  1002.5hPa NW 2.9mph /  4.7km/h 4.6mph /  7.4km/h 66% 0in /  0.0mm CLR
00:25 50.7 °F /  10.4 °C 39.7 °F /  4.3 °C 29.6in /  1002.5hPa NW 2.9mph /  4.7km/h 3.5mph /  5.6km/h 66% 0in /  0.0mm CLR
00:30 50.4 °F /  10.2 °C 39.7 °F /  4.3 °C 29.6in /  1002.5hPa WNW 2.9mph /  4.7km/h 4.6mph /  7.4km/h 67% 0in /  0.0mm CLR
00:35 50.2 °F /  10.1 °C 39.6 °F /  4.2 °C 29.6in /  1002.6hPa WSW 2.9mph /  4.7km/h 2.4mph /  3.9km/h 67% 0in /  0.0mm CLR
00:40 50.2 °F /  10.1 °C 39.6 °F /  4.2 °C 29.6in /  1002.6hPa SW 2.4mph /  3.9km/h 3.5mph /  5.6km/h 67% 0in /  0.0mm CLR
00:45 50.2 °F /  10.1 °C 39.4 °F /  4.1 °C 29.6in /  1002.6hPa SSE 2.4mph /  3.9km/h 4.6mph /  7.4km/h 66% 0in /  0.0mm CLR
00:50 50.4 °F /  10.2 °C 40.6 °F /  4.8 °C 29.6in /  1002.8hPa ESE 3.6mph /  5.8km/h 8.1mph /  13.0km/h 69% 0in /  0.0mm CLR
00:55 49.8 °F /  9.9 °C 40.5 °F /  4.7 °C 29.6in /  1002.8hPa SSE 3.6mph /  5.8km/h 6.9mph /  11.1km/h 70% 0in /  0.0mm CLR
01:00 49.8 °F /  9.9 °C 40.5 °F /  4.7 °C 29.6in /  1002.8hPa SE 6mph /  9.7km/h 7mph /  11.3km/h 70% 0in /  0.0mm CLR
01:05 49.8 °F /  9.9 °C 40.5 °F /  4.7 °C 29.6in /  1002.6hPa SSE 5.4mph /  8.7km/h 8.1mph /  13.0km/h 70% 0in /  0.0mm CLR
01:10 49.8 °F /  9.9 °C 40.5 °F /  4.7 °C 29.6in /  1002.6hPa SSW 5.2mph /  8.4km/h 6.9mph /  11.1km/h 70% 0in /  0.0mm CLR
01:15 49.8 °F /  9.9 °C 40.8 °F /  4.9 °C 29.6in /  1002.6hPa SW 5.2mph /  8.4km/h 5.8mph /  9.3km/h 71% 0in /  0.0mm CLR
01:20 50 °F /  10.0 °C 40.6 °F /  4.8 °C 29.6in /  1002.8hPa WSW 4.3mph /  6.9km/h 4.6mph /  7.4km/h 70% 0in /  0.0mm CLR
01:25 50.2 °F /  10.1 °C 40.5 °F /  4.7 °C 29.6in /  1002.8hPa WSW 4.3mph /  6.9km/h 4.6mph /  7.4km/h 69% 0in /  0.0mm CLR
01:30 50.4 °F /  10.2 °C 40.6 °F /  4.8 °C 29.6in /  1002.8hPa WSW 3.1mph /  5.0km/h 2.3mph /  3.7km/h 69% 0in /  0.0mm CLR
01:35 50.4 °F /  10.2 °C 40.3 °F /  4.6 °C 29.6in /  1002.8hPa WSW 3.1mph /  5.0km/h 3.5mph /  5.6km/h 68% 0in /  0.0mm CLR
01:40 50.5 °F /  10.3 °C 40.5 °F /  4.7 °C 29.6in /  1002.8hPa WSW 1.4mph /  2.3km/h   68% 0in /  0.0mm CLR
01:45 50.4 °F /  10.2 °C 40.6 °F /  4.8 °C 29.6in /  1002.8hPa ESE 1.4mph /  2.3km/h 5.8mph /  9.3km/h 69% 0in /  0.0mm CLR
01:50 49.6 °F /  9.8 °C 40.6 °F /  4.8 °C 29.6in /  1003.0hPa ESE 2.4mph /  3.9km/h 3.5mph /  5.6km/h 71% 0in /  0.0mm CLR
01:55 49.3 °F /  9.6 °C 40.6 °F /  4.8 °C 29.6in /  1003.0hPa NE 2.4mph /  3.9km/h 4mph /  6.4km/h 72% 0in /  0.0mm CLR
02:00 49.1 °F /  9.5 °C 40.8 °F /  4.9 °C 29.6in /  1003.0hPa ENE 2mph /  3.2km/h 5mph /  8.0km/h 73% 0in /  0.0mm CLR
02:05 48.9 °F /  9.4 °C 40.6 °F /  4.8 °C 29.6in /  1002.8hPa NW 2mph /  3.2km/h 4.3mph /  6.9km/h 73% 0in /  0.0mm CLR
02:10 48.9 °F /  9.4 °C 40.6 °F /  4.8 °C 29.6in /  1002.8hPa NNW 1.8mph /  2.9km/h 4.6mph /  7.4km/h 73% 0in /  0.0mm CLR
02:15 48.9 °F /  9.4 °C 40.6 °F /  4.8 °C 29.6in /  1002.8hPa NNW 1.8mph /  2.9km/h 4.6mph /  7.4km/h 73% 0in /  0.0mm CLR
02:20 48.7 °F /  9.3 °C 40.5 °F /  4.7 °C 29.6in /  1002.7hPa NW 2.9mph /  4.7km/h 4.6mph /  7.4km/h 73% 0in /  0.0mm CLR
02:25 48.7 °F /  9.3 °C 40.5 °F /  4.7 °C 29.6in /  1002.7hPa NW 2.9mph /  4.7km/h 3.6mph /  5.8km/h 73% 0in /  0.0mm CLR
02:30 48.7 °F /  9.3 °C 40.8 °F /  4.9 °C 29.6in /  1002.7hPa NNW 2mph /  3.2km/h 4.6mph /  7.4km/h 74% 0in /  0.0mm CLR
02:35 48.6 °F /  9.2 °C 41 °F /  5.0 °C 29.6in /  1002.6hPa NNW 2mph /  3.2km/h 5.2mph /  8.4km/h 75% 0in /  0.0mm CLR
02:40 48.4 °F /  9.1 °C 40.8 °F /  4.9 °C 29.6in /  1002.6hPa NNW 2.9mph /  4.7km/h 4.6mph /  7.4km/h 75% 0in /  0.0mm CLR
02:45 48.4 °F /  9.1 °C 40.8 °F /  4.9 °C 29.6in /  1002.6hPa NNW 2.9mph /  4.7km/h 4.6mph /  7.4km/h 75% 0in /  0.0mm CLR
02:50 48.4 °F /  9.1 °C 40.8 °F /  4.9 °C 29.6in /  1002.6hPa NW 2.9mph /  4.7km/h 4.6mph /  7.4km/h 75% 0in /  0.0mm CLR
02:55 48.4 °F /  9.1 °C 40.5 °F /  4.7 °C 29.6in /  1002.6hPa NW 2.9mph /  4.7km/h 4.6mph /  7.4km/h 74% 0in /  0.0mm CLR
03:00 48.6 °F /  9.2 °C 40.6 °F /  4.8 °C 29.6in /  1002.6hPa NW 3mph /  4.8km/h 5mph /  8.0km/h 74% 0in /  0.0mm CLR
03:05 48.6 °F /  9.2 °C 40.3 °F /  4.6 °C 29.6in /  1002.7hPa WNW 3.6mph /  5.8km/h 3.5mph /  5.6km/h 73% 0in /  0.0mm CLR
03:10 48.7 °F /  9.3 °C 40.1 °F /  4.5 °C 29.6in /  1002.7hPa WNW 2mph /  3.2km/h   72% 0in /  0.0mm CLR
03:15 48.7 °F /  9.3 °C 40.1 °F /  4.5 °C 29.6in /  1002.7hPa WNW 2mph /  3.2km/h 2.3mph /  3.7km/h 72% 0in /  0.0mm CLR
03:20 48.9 °F /  9.4 °C 40.6 °F /  4.8 °C 29.6in /  1002.6hPa WNW 1.4mph /  2.3km/h 4.6mph /  7.4km/h 73% 0in /  0.0mm CLR
03:25 48.9 °F /  9.4 °C 41 °F /  5.0 °C 29.6in /  1002.6hPa SE 1.4mph /  2.3km/h 3.5mph /  5.6km/h 74% 0in /  0.0mm CLR
03:30 48.9 °F /  9.4 °C 40.6 °F /  4.8 °C 29.6in /  1002.6hPa SE 2mph /  3.2km/h   73% 0in /  0.0mm CLR
03:35 48.9 °F /  9.4 °C 40.6 °F /  4.8 °C 29.6in /  1002.6hPa SE 2mph /  3.2km/h   73% 0in /  0.0mm CLR
03:40 48.9 °F /  9.4 °C 40.6 °F /  4.8 °C 29.6in /  1002.6hPa Calm   3.5mph /  5.6km/h 73% 0in /  0.0mm CLR
03:45 48.9 °F /  9.4 °C 40.3 °F /  4.6 °C 29.6in /  1002.6hPa Calm   3.5mph /  5.6km/h 72% 0in /  0.0mm CLR
03:50 48.9 °F /  9.4 °C 39.9 °F /  4.4 °C 29.6in /  1002.5hPa SSW 1.8mph /  2.9km/h 4.6mph /  7.4km/h 71% 0in /  0.0mm CLR
03:55 49.5 °F /  9.7 °C 39.7 °F /  4.3 °C 29.6in /  1002.5hPa SSW 1.8mph /  2.9km/h 4.7mph /  7.6km/h 69% 0in /  0.0mm CLR
04:00 49.6 °F /  9.8 °C 39.6 °F /  4.2 °C 29.6in /  1002.5hPa South 3mph /  4.8km/h 6mph /  9.7km/h 68% 0in /  0.0mm CLR
04:05 49.8 °F /  9.9 °C 38.8 °F /  3.8 °C 29.6in /  1002.4hPa SW 3.1mph /  5.0km/h 4.6mph /  7.4km/h 66% 0in /  0.0mm CLR
04:10 50 °F /  10.0 °C 38.7 °F /  3.7 °C 29.6in /  1002.4hPa West 2.9mph /  4.7km/h 4.6mph /  7.4km/h 65% 0in /  0.0mm CLR
04:15 50.2 °F /  10.1 °C 38.5 °F /  3.6 °C 29.6in /  1002.4hPa WSW 2.9mph /  4.7km/h 4.6mph /  7.4km/h 64% 0in /  0.0mm CLR
04:20 50.2 °F /  10.1 °C 38.5 °F /  3.6 °C 29.6in /  1002.4hPa WSW 2.4mph /  3.9km/h 5.8mph /  9.3km/h 64% 0in /  0.0mm CLR
04:25 50.4 °F /  10.2 °C 38.7 °F /  3.7 °C 29.6in /  1002.4hPa West 2.4mph /  3.9km/h 4.6mph /  7.4km/h 64% 0in /  0.0mm CLR
04:30 50.4 °F /  10.2 °C 39 °F /  3.9 °C 29.6in /  1002.4hPa WNW 2mph /  3.2km/h 3.5mph /  5.6km/h 65% 0in /  0.0mm CLR
04:35 50.4 °F /  10.2 °C 38.7 °F /  3.7 °C 29.6in /  1002.6hPa West 2mph /  3.2km/h 3.5mph /  5.6km/h 64% 0in /  0.0mm CLR
04:40 50.2 °F /  10.1 °C 39.6 °F /  4.2 °C 29.6in /  1002.6hPa West 1.4mph /  2.3km/h 3.5mph /  5.6km/h 67% 0in /  0.0mm CLR
04:45 49.5 °F /  9.7 °C 39.4 °F /  4.1 °C 29.6in /  1002.6hPa West 1.4mph /  2.3km/h 3.5mph /  5.6km/h 68% 0in /  0.0mm CLR
04:50 48.9 °F /  9.4 °C 39.6 °F /  4.2 °C 29.6in /  1002.5hPa West 2mph /  3.2km/h 2.3mph /  3.7km/h 70% 0in /  0.0mm CLR
04:55 48.6 °F /  9.2 °C 39.6 °F /  4.2 °C 29.6in /  1002.5hPa West 2mph /  3.2km/h   71% 0in /  0.0mm CLR
05:00 48.6 °F /  9.2 °C 39.2 °F /  4.0 °C 29.6in /  1002.5hPa Calm   5mph /  8.0km/h 70% 0in /  0.0mm CLR
05:05 48.4 °F /  9.1 °C 38.7 °F /  3.7 °C 29.6in /  1002.4hPa Calm   3.6mph /  5.8km/h 69% 0in /  0.0mm CLR
05:10 48.2 °F /  9.0 °C 38.5 °F /  3.6 °C 29.6in /  1002.4hPa SSE 2.4mph /  3.9km/h 4.6mph /  7.4km/h 69% 0in /  0.0mm CLR
05:15 48.2 °F /  9.0 °C 38.8 °F /  3.8 °C 29.6in /  1002.4hPa SE 2.4mph /  3.9km/h 5.8mph /  9.3km/h 70% 0in /  0.0mm CLR
05:20 48 °F /  8.9 °C 38.7 °F /  3.7 °C 29.6in /  1002.5hPa SE 3.1mph /  5.0km/h 4.6mph /  7.4km/h 70% 0in /  0.0mm CLR
05:25 48.2 °F /  9.0 °C 38.8 °F /  3.8 °C 29.6in /  1002.5hPa SE 3.1mph /  5.0km/h 4.6mph /  7.4km/h 70% 0in /  0.0mm CLR
05:30 48.2 °F /  9.0 °C 38.8 °F /  3.8 °C 29.6in /  1002.5hPa South 3.1mph /  5.0km/h 6.4mph /  10.3km/h 70% 0in /  0.0mm CLR
05:35 48.4 °F /  9.1 °C 38.7 °F /  3.7 °C 29.6in /  1002.6hPa SSW 3.1mph /  5.0km/h 8.1mph /  13.0km/h 69% 0in /  0.0mm CLR
05:40 48.4 °F /  9.1 °C 38.7 °F /  3.7 °C 29.6in /  1002.6hPa SSW 5.9mph /  9.5km/h 9.2mph /  14.8km/h 69% 0in /  0.0mm CLR
05:45 48.6 °F /  9.2 °C 38.8 °F /  3.8 °C 29.6in /  1002.6hPa SSW 5.9mph /  9.5km/h 6.9mph /  11.1km/h 69% 0in /  0.0mm CLR
05:50 48.7 °F /  9.3 °C 38.3 °F /  3.5 °C 29.6in /  1002.7hPa SW 5.4mph /  8.7km/h 9.2mph /  14.8km/h 67% 0in /  0.0mm CLR
05:55 49.5 °F /  9.7 °C 38.1 °F /  3.4 °C 29.6in /  1002.7hPa SSE 5.4mph /  8.7km/h 6.9mph /  11.1km/h 65% 0in /  0.0mm CLR
06:00 49.6 °F /  9.8 °C 38.3 °F /  3.5 °C 29.6in /  1002.7hPa South 5mph /  8.0km/h 7mph /  11.3km/h 65% 0in /  0.0mm CLR
06:05 49.5 °F /  9.7 °C 39 °F /  3.9 °C 29.6in /  1002.7hPa SSE 5.2mph /  8.4km/h 8.1mph /  13.0km/h 67% 0in /  0.0mm CLR
06:10 48.9 °F /  9.4 °C 38.8 °F /  3.8 °C 29.6in /  1002.7hPa SSE 4.7mph /  7.6km/h 8.1mph /  13.0km/h 68% 0in /  0.0mm CLR
06:15 48.6 °F /  9.2 °C 38.5 °F /  3.6 °C 29.6in /  1002.7hPa South 4.7mph /  7.6km/h 9.2mph /  14.8km/h 68% 0in /  0.0mm CLR
06:20 48.4 °F /  9.1 °C 38.3 °F /  3.5 °C 29.6in /  1002.9hPa South 5.9mph /  9.5km/h 9.2mph /  14.8km/h 68% 0in /  0.0mm CLR
06:25 48.4 °F /  9.1 °C 38.3 °F /  3.5 °C 29.6in /  1002.9hPa SSW 5.9mph /  9.5km/h 5.8mph /  9.3km/h 68% 0in /  0.0mm CLR
06:30 48.4 °F /  9.1 °C 37.9 °F /  3.3 °C 29.6in /  1002.9hPa SW 5.2mph /  8.4km/h 5.4mph /  8.7km/h 67% 0in /  0.0mm CLR
06:35 48.4 °F /  9.1 °C 38.3 °F /  3.5 °C 29.6in /  1003.0hPa SW 5.2mph /  8.4km/h   68% 0in /  0.0mm CLR
06:40 48.4 °F /  9.1 °C 38.3 °F /  3.5 °C 29.6in /  1003.0hPa SW 2mph /  3.2km/h   68% 0in /  0.0mm CLR
06:45 48.4 °F /  9.1 °C 38.3 °F /  3.5 °C 29.6in /  1003.0hPa SW 2mph /  3.2km/h   68% 0in /  0.0mm CLR
06:50 48.4 °F /  9.1 °C 37.9 °F /  3.3 °C 29.6in /  1003.3hPa Calm   4.6mph /  7.4km/h 67% 0in /  0.0mm CLR
06:55 48.4 °F /  9.1 °C 37.9 °F /  3.3 °C 29.6in /  1003.3hPa Calm   3.5mph /  5.6km/h 67% 0in /  0.0mm CLR
07:00 48.6 °F /  9.2 °C 38.1 °F /  3.4 °C 29.6in /  1003.3hPa SW 2mph /  3.2km/h 5mph /  8.0km/h 67% 0in /  0.0mm CLR
07:05 48.6 °F /  9.2 °C 38.1 °F /  3.4 °C 29.6in /  1003.5hPa West 2.4mph /  3.9km/h 5.8mph /  9.3km/h 67% 0in /  0.0mm CLR
07:10 48.6 °F /  9.2 °C 38.1 °F /  3.4 °C 29.6in /  1003.5hPa WSW 3.6mph /  5.8km/h 4.6mph /  7.4km/h 67% 0in /  0.0mm CLR
07:15 48.4 °F /  9.1 °C 38.3 °F /  3.5 °C 29.6in /  1003.5hPa WSW 3.6mph /  5.8km/h 5.8mph /  9.3km/h 68% 0in /  0.0mm CLR
07:20 48.4 °F /  9.1 °C 37.9 °F /  3.3 °C 29.6in /  1003.7hPa WSW 3.6mph /  5.8km/h 6.9mph /  11.1km/h 67% 0in /  0.0mm CLR
07:25 48.6 °F /  9.2 °C 38.1 °F /  3.4 °C 29.6in /  1003.7hPa WSW 3.6mph /  5.8km/h 4.6mph /  7.4km/h 67% 0in /  0.0mm CLR
07:30 48.6 °F /  9.2 °C 37.8 °F /  3.2 °C 29.6in /  1003.7hPa SSW 3.6mph /  5.8km/h 6.9mph /  11.1km/h 66% 0in /  0.0mm CLR
07:35 48.9 °F /  9.4 °C 37.8 °F /  3.2 °C 29.6in /  1003.9hPa SSW 3.6mph /  5.8km/h 8.1mph /  13.0km/h 65% 0in /  0.0mm CLR
07:40 49.3 °F /  9.6 °C 37.6 °F /  3.1 °C 29.6in /  1003.9hPa WSW 5.2mph /  8.4km/h 5.9mph /  9.5km/h 64% 0in /  0.0mm CLR
07:45 49.5 °F /  9.7 °C 37.8 °F /  3.2 °C 29.6in /  1003.9hPa West 5.2mph /  8.4km/h 4.6mph /  7.4km/h 64% 0in /  0.0mm CLR
07:50 49.3 °F /  9.6 °C 37.6 °F /  3.1 °C 29.6in /  1003.9hPa SW 3.1mph /  5.0km/h 4.6mph /  7.4km/h 64% 0in /  0.0mm CLR
07:55 49.3 °F /  9.6 °C 37.9 °F /  3.3 °C 29.6in /  1003.9hPa SW 3.1mph /  5.0km/h 2.3mph /  3.7km/h 65% 0in /  0.0mm CLR
08:00 48.9 °F /  9.4 °C 38.1 °F /  3.4 °C 29.6in /  1003.9hPa West 2mph /  3.2km/h 5mph /  8.0km/h 66% 0in /  0.0mm CLR
08:05 48.4 °F /  9.1 °C 38.3 °F /  3.5 °C 29.7in /  1004.3hPa NW 2.9mph /  4.7km/h   68% 0in /  0.0mm CLR
08:10 48.2 °F /  9.0 °C 38.5 °F /  3.6 °C 29.7in /  1004.3hPa ESE 1.8mph /  2.9km/h 4.6mph /  7.4km/h 69% 0in /  0.0mm CLR
08:15 48.4 °F /  9.1 °C 38.7 °F /  3.7 °C 29.7in /  1004.3hPa ESE 1.8mph /  2.9km/h 4.3mph /  6.9km/h 69% 0in /  0.0mm CLR
08:20 48.4 °F /  9.1 °C 38.3 °F /  3.5 °C 29.7in /  1004.4hPa SSW 2mph /  3.2km/h 4.6mph /  7.4km/h 68% 0in /  0.0mm CLR
08:25 48.2 °F /  9.0 °C 38.1 °F /  3.4 °C 29.7in /  1004.4hPa SSE 2mph /  3.2km/h 5.8mph /  9.3km/h 68% 0in /  0.0mm CLR
08:30 48.4 °F /  9.1 °C 38.3 °F /  3.5 °C 29.7in /  1004.4hPa SSE 4mph /  6.4km/h 4.6mph /  7.4km/h 68% 0in /  0.0mm CLR
08:35 48.6 °F /  9.2 °C 38.5 °F /  3.6 °C 29.7in /  1004.5hPa SSE 4mph /  6.4km/h 4.7mph /  7.6km/h 68% 0in /  0.0mm CLR
08:40 48.7 °F /  9.3 °C 38.3 °F /  3.5 °C 29.7in /  1004.5hPa SSE 3.6mph /  5.8km/h 6.9mph /  11.1km/h 67% 0in /  0.0mm CLR
08:45 48.9 °F /  9.4 °C 38.5 °F /  3.6 °C 29.7in /  1004.5hPa SSE 3.6mph /  5.8km/h 4.6mph /  7.4km/h 67% 0in /  0.0mm CLR
08:50 49.3 °F /  9.6 °C 38.5 °F /  3.6 °C 29.7in /  1004.7hPa South 3.6mph /  5.8km/h 4.6mph /  7.4km/h 66% 0in /  0.0mm CLR
08:55 49.6 °F /  9.8 °C 38.3 °F /  3.5 °C 29.7in /  1004.7hPa SSE 3.6mph /  5.8km/h 4.7mph /  7.6km/h 65% 0in /  0.0mm CLR
09:00 50.2 °F /  10.1 °C 38.8 °F /  3.8 °C 29.7in /  1004.7hPa SSE 3mph /  4.8km/h 5mph /  8.0km/h 65% 0in /  0.0mm CLR
09:05 50.5 °F /  10.3 °C 39.6 °F /  4.2 °C 29.7in /  1004.8hPa South 3.6mph /  5.8km/h 3.5mph /  5.6km/h 66% 0in /  0.0mm CLR
09:10 51.1 °F /  10.6 °C 39.4 °F /  4.1 °C 29.7in /  1004.8hPa SSE 2.4mph /  3.9km/h 3.5mph /  5.6km/h 64% 0in /  0.0mm CLR
09:15 51.4 °F /  10.8 °C 38.8 °F /  3.8 °C 29.7in /  1004.8hPa SSE 2.4mph /  3.9km/h 2.3mph /  3.7km/h 62% 0in /  0.0mm CLR
09:20 52.2 °F /  11.2 °C 39.6 °F /  4.2 °C 29.7in /  1005.0hPa SSE 1.8mph /  2.9km/h   62% 0in /  0.0mm CLR
09:25 52.9 °F /  11.6 °C 38.8 °F /  3.8 °C 29.7in /  1005.0hPa SW 1.8mph /  2.9km/h 2.3mph /  3.7km/h 59% 0in /  0.0mm CLR
09:30 53.1 °F /  11.7 °C 38.1 °F /  3.4 °C 29.7in /  1005.0hPa SW 1.8mph /  2.9km/h 2.3mph /  3.7km/h 57% 0in /  0.0mm CLR
09:35 53.2 °F /  11.8 °C 37.6 °F /  3.1 °C 29.7in /  1005.1hPa SSW 1.8mph /  2.9km/h 4.6mph /  7.4km/h 55% 0in /  0.0mm CLR
09:40 53.6 °F /  12.0 °C 37.2 °F /  2.9 °C 29.7in /  1005.1hPa SSW 2mph /  3.2km/h 5.8mph /  9.3km/h 54% 0in /  0.0mm CLR
09:45 53.8 °F /  12.1 °C 36.7 °F /  2.6 °C 29.7in /  1005.1hPa SW 2mph /  3.2km/h 8.1mph /  13.0km/h 52% 0in /  0.0mm CLR
09:50 54 °F /  12.2 °C 36.7 °F /  2.6 °C 29.7in /  1005.0hPa WNW 4mph /  6.4km/h 4.6mph /  7.4km/h 52% 0in /  0.0mm CLR
09:55 54.1 °F /  12.3 °C 36.9 °F /  2.7 °C 29.7in /  1005.0hPa NW 4mph /  6.4km/h 2.3mph /  3.7km/h 52% 0in /  0.0mm CLR
10:00 54.9 °F /  12.7 °C 37 °F /  2.8 °C 29.7in /  1005.0hPa WNW 2mph /  3.2km/h 6mph /  9.7km/h 51% 0in /  0.0mm CLR
10:05 55.2 °F /  12.9 °C 36.3 °F /  2.4 °C 29.7in /  1005.1hPa South 2mph /  3.2km/h   49% 0in /  0.0mm CLR
10:10 55.8 °F /  13.2 °C 36.3 °F /  2.4 °C 29.7in /  1005.1hPa SSE 1.8mph /  2.9km/h 2.3mph /  3.7km/h 48% 0in /  0.0mm CLR
10:15 56.5 °F /  13.6 °C 39 °F /  3.9 °C 29.7in /  1005.1hPa East 1.8mph /  2.9km/h 2.3mph /  3.7km/h 52% 0in /  0.0mm CLR
10:20 56.8 °F /  13.8 °C 39.4 °F /  4.1 °C 29.7in /  1005.1hPa North 1.8mph /  2.9km/h 3.5mph /  5.6km/h 52% 0in /  0.0mm CLR
10:25 57.4 °F /  14.1 °C 39.4 °F /  4.1 °C 29.7in /  1005.1hPa NE 1.8mph /  2.9km/h 4.6mph /  7.4km/h 51% 0in /  0.0mm CLR
10:30 57.2 °F /  14.0 °C 38.1 °F /  3.4 °C 29.7in /  1005.1hPa NE 2.4mph /  3.9km/h 5.8mph /  9.3km/h 49% 0in /  0.0mm CLR
10:35 57 °F /  13.9 °C 38.5 °F /  3.6 °C 29.7in /  1005.1hPa NNE 2.4mph /  3.9km/h 3.5mph /  5.6km/h 50% 0in /  0.0mm CLR
10:40 57.2 °F /  14.0 °C 39.2 °F /  4.0 °C 29.7in /  1005.1hPa ESE 2.4mph /  3.9km/h 3.5mph /  5.6km/h 51% 0in /  0.0mm CLR
10:45 57.6 °F /  14.2 °C 37.9 °F /  3.3 °C 29.7in /  1005.1hPa SSE 2.4mph /  3.9km/h 4.6mph /  7.4km/h 48% 0in /  0.0mm CLR
10:50 57.7 °F /  14.3 °C 37.6 °F /  3.1 °C 29.7in /  1005.3hPa SSE 2.4mph /  3.9km/h 5.8mph /  9.3km/h 47% 0in /  0.0mm CLR
10:55 57.7 °F /  14.3 °C 37 °F /  2.8 °C 29.7in /  1005.3hPa SE 2.4mph /  3.9km/h 6.9mph /  11.1km/h 46% 0in /  0.0mm CLR
11:00 57.7 °F /  14.3 °C 36.5 °F /  2.5 °C 29.7in /  1005.3hPa SSE 5mph /  8.0km/h 7mph /  11.3km/h 45% 0in /  0.0mm CLR
11:05 57.9 °F /  14.4 °C 36.1 °F /  2.3 °C 29.7in /  1005.3hPa SSE 4mph /  6.4km/h 8.1mph /  13.0km/h 44% 0in /  0.0mm CLR
11:10 58.3 °F /  14.6 °C 36.3 °F /  2.4 °C 29.7in /  1005.3hPa South 3.1mph /  5.0km/h 8.5mph /  13.7km/h 44% 0in /  0.0mm CLR
11:15 58.5 °F /  14.7 °C 36.7 °F /  2.6 °C 29.7in /  1005.3hPa East 3.1mph /  5.0km/h 3.5mph /  5.6km/h 44% 0in /  0.0mm CLR
11:20 59 °F /  15.0 °C 36.5 °F /  2.5 °C 29.7in /  1005.3hPa SE 3.1mph /  5.0km/h 8.1mph /  13.0km/h 43% 0in /  0.0mm CLR
11:25 59 °F /  15.0 °C 36.5 °F /  2.5 °C 29.7in /  1005.3hPa ESE 3.1mph /  5.0km/h 7.4mph /  11.9km/h 43% 0in /  0.0mm CLR
11:30 59.4 °F /  15.2 °C 36.1 °F /  2.3 °C 29.7in /  1005.3hPa SSE 5.2mph /  8.4km/h 6.9mph /  11.1km/h 42% 0in /  0.0mm CLR
11:35 59.4 °F /  15.2 °C 36.1 °F /  2.3 °C 29.7in /  1005.2hPa SSW 5.2mph /  8.4km/h 3.1mph /  5.0km/h 42% 0in /  0.0mm CLR
11:40 59.5 °F /  15.3 °C 36.3 °F /  2.4 °C 29.7in /  1005.2hPa NE 3.6mph /  5.8km/h 5.8mph /  9.3km/h 42% 0in /  0.0mm CLR
11:45 59.7 °F /  15.4 °C 36 °F /  2.2 °C 29.7in /  1005.2hPa West 3.6mph /  5.8km/h 5.8mph /  9.3km/h 41% 0in /  0.0mm CLR
11:50 60.1 °F /  15.6 °C 36.3 °F /  2.4 °C 29.7in /  1005.1hPa East 3.1mph /  5.0km/h 9.2mph /  14.8km/h 41% 0in /  0.0mm CLR
11:55 60.3 °F /  15.7 °C 36.3 °F /  2.4 °C 29.7in /  1005.1hPa South 3.1mph /  5.0km/h 6.2mph /  10.0km/h 41% 0in /  0.0mm CLR
12:00 60.6 °F /  15.9 °C 36.7 °F /  2.6 °C 29.7in /  1005.1hPa SE 5mph /  8.0km/h 7mph /  11.3km/h 41% 0in /  0.0mm CLR
12:05 60.8 °F /  16.0 °C 36.3 °F /  2.4 °C 29.7in /  1005.0hPa West 5.2mph /  8.4km/h 9.2mph /  14.8km/h 40% 0in /  0.0mm CLR
12:10 61 °F /  16.1 °C 36.5 °F /  2.5 °C 29.7in /  1005.0hPa West 4.3mph /  6.9km/h 2.4mph /  3.9km/h 40% 0in /  0.0mm CLR
12:15 60.6 °F /  15.9 °C 36.1 °F /  2.3 °C 29.7in /  1005.0hPa SW 4.3mph /  6.9km/h 9.2mph /  14.8km/h 40% 0in /  0.0mm CLR
12:20 61 °F /  16.1 °C 35.8 °F /  2.1 °C 29.7in /  1004.9hPa SSW 5.2mph /  8.4km/h 9.2mph /  14.8km/h 39% 0in /  0.0mm CLR
12:25 61.3 °F /  16.3 °C 35.4 °F /  1.9 °C 29.7in /  1004.9hPa NW 5.2mph /  8.4km/h 4mph /  6.4km/h 38% 0in /  0.0mm CLR
12:30 61.3 °F /  16.3 °C 34.9 °F /  1.6 °C 29.7in /  1004.9hPa NE 5.2mph /  8.4km/h 4.6mph /  7.4km/h 37% 0in /  0.0mm CLR
12:35 61.5 °F /  16.4 °C 35.1 °F /  1.7 °C 29.7in /  1004.6hPa SSE 5.2mph /  8.4km/h 5.8mph /  9.3km/h 37% 0in /  0.0mm CLR
12:40 61.9 °F /  16.6 °C 36 °F /  2.2 °C 29.7in /  1004.6hPa SSE 4mph /  6.4km/h 5.8mph /  9.3km/h 38% 0in /  0.0mm CLR
12:45 62.1 °F /  16.7 °C 35.4 °F /  1.9 °C 29.7in /  1004.6hPa ESE 4mph /  6.4km/h 4.6mph /  7.4km/h 37% 0in /  0.0mm CLR
12:50 62.2 °F /  16.8 °C 35.6 °F /  2.0 °C 29.7in /  1004.3hPa SSE 4mph /  6.4km/h 11.5mph /  18.5km/h 37% 0in /  0.0mm CLR
12:55 62.4 °F /  16.9 °C 35.8 °F /  2.1 °C 29.7in /  1004.3hPa SW 4mph /  6.4km/h 16.1mph /  25.9km/h 37% 0in /  0.0mm CLR
13:00 62.8 °F /  17.1 °C 36.1 °F /  2.3 °C 29.7in /  1004.3hPa WSW 8mph /  12.9km/h 12mph /  19.3km/h 37% 0in /  0.0mm CLR
13:05 63.1 °F /  17.3 °C 35.8 °F /  2.1 °C 29.7in /  1004.3hPa West 7.6mph /  12.2km/h 6.9mph /  11.1km/h 36% 0in /  0.0mm CLR
13:10 63.3 °F /  17.4 °C 36 °F /  2.2 °C 29.7in /  1004.3hPa South 3.1mph /  5.0km/h 8.1mph /  13.0km/h 36% 0in /  0.0mm CLR
13:15 63.5 °F /  17.5 °C 36 °F /  2.2 °C 29.7in /  1004.3hPa SW 3.1mph /  5.0km/h 8.1mph /  13.0km/h 36% 0in /  0.0mm CLR
13:20 63.3 °F /  17.4 °C 35.2 °F /  1.8 °C 29.7in /  1004.2hPa SSW 4.7mph /  7.6km/h 9.2mph /  14.8km/h 35% 0in /  0.0mm CLR
13:25 63 °F /  17.2 °C 35.6 °F /  2.0 °C 29.7in /  1004.2hPa SSW 4.7mph /  7.6km/h 10.4mph /  16.7km/h 36% 0in /  0.0mm CLR
13:30 63 °F /  17.2 °C 34.2 °F /  1.2 °C 29.7in /  1004.2hPa South 6.4mph /  10.3km/h 10.4mph /  16.7km/h 34% 0in /  0.0mm CLR
13:35 63 °F /  17.2 °C 34.9 °F /  1.6 °C 29.7in /  1004.0hPa SW 6.4mph /  10.3km/h 5.4mph /  8.7km/h 35% 0in /  0.0mm CLR
13:40 63 °F /  17.2 °C 34.9 °F /  1.6 °C 29.7in /  1004.0hPa SSE 4mph /  6.4km/h 4.6mph /  7.4km/h 35% 0in /  0.0mm CLR
13:45 63.3 °F /  17.4 °C 35.2 °F /  1.8 °C 29.7in /  1004.0hPa SW 4mph /  6.4km/h 10.4mph /  16.7km/h 35% 0in /  0.0mm CLR
13:50 63.5 °F /  17.5 °C 35.2 °F /  1.8 °C 29.6in /  1003.9hPa South 4.7mph /  7.6km/h 5.8mph /  9.3km/h 35% 0in /  0.0mm CLR
13:55 63.7 °F /  17.6 °C 34.9 °F /  1.6 °C 29.6in /  1003.9hPa SSW 4.7mph /  7.6km/h 13mph /  20.9km/h 34% 0in /  0.0mm CLR
14:00 63.9 °F /  17.7 °C 34.9 °F /  1.6 °C 29.6in /  1003.9hPa SSW 6mph /  9.7km/h 13mph /  20.9km/h 34% 0in /  0.0mm CLR
14:05 63.7 °F /  17.6 °C 34.9 °F /  1.6 °C 29.6in /  1003.5hPa SSW 5.9mph /  9.5km/h 9.2mph /  14.8km/h 34% 0in /  0.0mm CLR
14:10 63.9 °F /  17.7 °C 34.9 °F /  1.6 °C 29.6in /  1003.5hPa SSE 8.1mph /  13.0km/h 10.4mph /  16.7km/h 34% 0in /  0.0mm CLR
14:15 63.7 °F /  17.6 °C 37.6 °F /  3.1 °C 29.6in /  1003.5hPa SSE 8.1mph /  13.0km/h 8.1mph /  13.0km/h 38% 0in /  0.0mm CLR
14:20 63.3 °F /  17.4 °C 37.9 °F /  3.3 °C 29.6in /  1003.4hPa SSE 6.4mph /  10.3km/h 5.8mph /  9.3km/h 39% 0in /  0.0mm CLR
14:25 62.8 °F /  17.1 °C 38.1 °F /  3.4 °C 29.6in /  1003.4hPa South 6.4mph /  10.3km/h 6.9mph /  11.1km/h 40% 0in /  0.0mm CLR
14:30 62.8 °F /  17.1 °C 36.9 °F /  2.7 °C 29.6in /  1003.4hPa SW 5.9mph /  9.5km/h 21.9mph /  35.2km/h 38% 0in /  0.0mm CLR
14:35 61.3 °F /  16.3 °C 39.7 °F /  4.3 °C 29.6in /  1003.8hPa WNW 5.9mph /  9.5km/h 8.7mph /  14.0km/h 45% 0in /  0.0mm CLR
14:40 60.4 °F /  15.8 °C 39.6 °F /  4.2 °C 29.6in /  1003.8hPa NW 8.7mph /  14.0km/h 16.1mph /  25.9km/h 46% 0in /  0.0mm CLR
14:45 58.8 °F /  14.9 °C 40.3 °F /  4.6 °C 29.6in /  1003.8hPa WNW 8.7mph /  14.0km/h 25.3mph /  40.7km/h 50% 0.02in /  0.5mm RA
14:50 56.7 °F /  13.7 °C 43 °F /  6.1 °C 29.7in /  1004.9hPa WSW 14.5mph /  23.3km/h 26.5mph /  42.6km/h 60% 0.04in /  1.0mm RA
14:55 55.4 °F /  13.0 °C 44.2 °F /  6.8 °C 29.7in /  1004.9hPa SW 14.5mph /  23.3km/h 10.4mph /  16.7km/h 66% 0.05in /  1.3mm RA
15:00 55 °F /  12.8 °C 44.8 °F /  7.1 °C 29.7in /  1004.9hPa West 9mph /  14.5km/h 13mph /  20.9km/h 68% 0in /  0.0mm RA
15:05 55.2 °F /  12.9 °C 43.7 °F /  6.5 °C 29.7in /  1004.6hPa West 9.7mph /  15.6km/h 9.2mph /  14.8km/h 65% 0.05in /  1.3mm
15:10 55.8 °F /  13.2 °C 45.3 °F /  7.4 °C 29.7in /  1004.6hPa WNW 5.4mph /  8.7km/h 4.6mph /  7.4km/h 68% 0.05in /  1.3mm CLR
15:15 56.3 °F /  13.5 °C 45.1 °F /  7.3 °C 29.7in /  1004.6hPa WSW 5.4mph /  8.7km/h 3.5mph /  5.6km/h 66% 0.05in /  1.3mm CLR
15:20 57.4 °F /  14.1 °C 45.3 °F /  7.4 °C 29.7in /  1004.2hPa West 2.4mph /  3.9km/h 5.8mph /  9.3km/h 64% 0.05in /  1.3mm CLR
15:25 58.5 °F /  14.7 °C 41.4 °F /  5.2 °C 29.7in /  1004.2hPa SW 2.4mph /  3.9km/h 6.4mph /  10.3km/h 53% 0.05in /  1.3mm CLR
15:30 59.4 °F /  15.2 °C 41.2 °F /  5.1 °C 29.7in /  1004.2hPa SSW 4.3mph /  6.9km/h 9.2mph /  14.8km/h 51% 0.05in /  1.3mm CLR
15:35 60.3 °F /  15.7 °C 45 °F /  7.2 °C 29.7in /  1004.0hPa SSE 4.3mph /  6.9km/h 13.8mph /  22.2km/h 57% 0.05in /  1.3mm CLR
15:40 59.9 °F /  15.5 °C 43.7 °F /  6.5 °C 29.7in /  1004.0hPa SSW 6.4mph /  10.3km/h 6.9mph /  11.1km/h 55% 0.05in /  1.3mm CLR
15:45 60.1 °F /  15.6 °C 43.9 °F /  6.6 °C 29.7in /  1004.0hPa WSW 6.4mph /  10.3km/h 11.5mph /  18.5km/h 55% 0.03in /  0.8mm CLR
15:50 60.1 °F /  15.6 °C 42.4 °F /  5.8 °C 29.7in /  1004.0hPa SSW 6.2mph /  10.0km/h 6.9mph /  11.1km/h 52% 0.01in /  0.3mm CLR
15:55 60.4 °F /  15.8 °C 43.2 °F /  6.2 °C 29.7in /  1004.0hPa SSE 6.2mph /  10.0km/h 6.4mph /  10.3km/h 53% 0in /  0.0mm CLR
16:00 60.4 °F /  15.8 °C 41.7 °F /  5.4 °C 29.7in /  1004.0hPa South 5mph /  8.0km/h 7mph /  11.3km/h 50% 0in /  0.0mm CLR
16:05 60.8 °F /  16.0 °C 42.1 °F /  5.6 °C 29.6in /  1003.8hPa South 4.7mph /  7.6km/h 8.1mph /  13.0km/h 50% 0in /  0.0mm CLR
16:10 61.3 °F /  16.3 °C 39.7 °F /  4.3 °C 29.6in /  1003.8hPa SSW 5.9mph /  9.5km/h 10.4mph /  16.7km/h 45% 0in /  0.0mm CLR
16:15 61.5 °F /  16.4 °C 40.5 °F /  4.7 °C 29.6in /  1003.8hPa SSW 5.9mph /  9.5km/h 10.4mph /  16.7km/h 46% 0in /  0.0mm CLR
16:20 61.9 °F /  16.6 °C 40.3 °F /  4.6 °C 29.6in /  1003.5hPa South 7.4mph /  11.9km/h 12.7mph /  20.4km/h 45% 0in /  0.0mm CLR
16:25 61.9 °F /  16.6 °C 39.7 °F /  4.3 °C 29.6in /  1003.5hPa SSW 7.4mph /  11.9km/h 10.4mph /  16.7km/h 44% 0in /  0.0mm CLR
16:30 61.9 °F /  16.6 °C 39.7 °F /  4.3 °C 29.6in /  1003.5hPa SSW 7.4mph /  11.9km/h 9.2mph /  14.8km/h 44% 0in /  0.0mm CLR
16:35 62.1 °F /  16.7 °C 39.9 °F /  4.4 °C 29.6in /  1003.3hPa South 7.4mph /  11.9km/h 9.2mph /  14.8km/h 44% 0.01in /  0.3mm RA
16:40 61.9 °F /  16.6 °C 40.3 °F /  4.6 °C 29.6in /  1003.3hPa South 6.2mph /  10.0km/h 9.2mph /  14.8km/h 45% 0.02in /  0.5mm RA
16:45 61.3 °F /  16.3 °C 40.8 °F /  4.9 °C 29.6in /  1003.3hPa SE 6.2mph /  10.0km/h 6.9mph /  11.1km/h 47% 0.02in /  0.5mm RA
16:50 61.3 °F /  16.3 °C 40.5 °F /  4.7 °C 29.6in /  1002.9hPa South 5.2mph /  8.4km/h 8.1mph /  13.0km/h 46% 0.02in /  0.5mm CLR
16:55 61.3 °F /  16.3 °C 40.8 °F /  4.9 °C 29.6in /  1002.9hPa SSW 5.2mph /  8.4km/h 9.2mph /  14.8km/h 47% 0.02in /  0.5mm CLR
17:00 61.3 °F /  16.3 °C 41.5 °F /  5.3 °C 29.6in /  1002.9hPa South 5mph /  8.0km/h 8mph /  12.9km/h 48% 0in /  0.0mm
17:05 61.9 °F /  16.6 °C 42.1 °F /  5.6 °C 29.6in /  1002.7hPa SSE 5.2mph /  8.4km/h 8.1mph /  13.0km/h 48% 0.02in /  0.5mm CLR
17:10 61.9 °F /  16.6 °C 42.1 °F /  5.6 °C 29.6in /  1002.7hPa South 6.9mph /  11.1km/h 12.7mph /  20.4km/h 48% 0.03in /  0.8mm RA
17:15 61.3 °F /  16.3 °C 42.1 °F /  5.6 °C 29.6in /  1002.7hPa SSW 6.9mph /  11.1km/h 18.5mph /  29.8km/h 49% 0.03in /  0.8mm RA
17:20 60.4 °F /  15.8 °C 40.6 °F /  4.8 °C 29.6in /  1003.2hPa SSE 9.2mph /  14.8km/h 13.8mph /  22.2km/h 48% 0.04in /  1.0mm RA
17:25 59.9 °F /  15.5 °C 42.3 °F /  5.7 °C 29.6in /  1003.2hPa WNW 9.2mph /  14.8km/h 9.2mph /  14.8km/h 52% 0.05in /  1.3mm RA
17:30 59.5 °F /  15.3 °C 41.4 °F /  5.2 °C 29.6in /  1003.2hPa NW 7.6mph /  12.2km/h 27.6mph /  44.4km/h 51% 0.06in /  1.5mm RA
17:35 58.5 °F /  14.7 °C 42.8 °F /  6.0 °C 29.6in /  1003.8hPa North 7.6mph /  12.2km/h 10.4mph /  16.7km/h 56% 0.06in /  1.5mm RA
17:40 58.1 °F /  14.5 °C 43.9 °F /  6.6 °C 29.6in /  1003.8hPa North 11.2mph /  18.0km/h 4.6mph /  7.4km/h 59% 0.05in /  1.3mm RA
17:45 57.9 °F /  14.4 °C 43.2 °F /  6.2 °C 29.6in /  1003.8hPa NNE 11.2mph /  18.0km/h 2.3mph /  3.7km/h 58% 0.05in /  1.3mm
17:50 58.1 °F /  14.5 °C 43.9 °F /  6.6 °C 29.6in /  1003.6hPa NNE 2mph /  3.2km/h 2.9mph /  4.7km/h 59% 0.05in /  1.3mm CLR
17:55 58.3 °F /  14.6 °C 41.7 °F /  5.4 °C 29.6in /  1003.6hPa SSW 2mph /  3.2km/h 6.9mph /  11.1km/h 54% 0.05in /  1.3mm CLR
18:00 58.6 °F /  14.8 °C 43 °F /  6.1 °C 29.6in /  1003.6hPa NW 2mph /  3.2km/h 7mph /  11.3km/h 56% 0in /  0.0mm
18:05 58.8 °F /  14.9 °C 43.2 °F /  6.2 °C 29.6in /  1003.8hPa NW 2.9mph /  4.7km/h 11.5mph /  18.5km/h 56% 0.05in /  1.3mm CLR
18:10 59.2 °F /  15.1 °C 41.5 °F /  5.3 °C 29.6in /  1003.8hPa NNW 5.9mph /  9.5km/h 15mph /  24.1km/h 52% 0.04in /  1.0mm CLR
18:15 59.4 °F /  15.2 °C 41.7 °F /  5.4 °C 29.6in /  1003.8hPa NNW 5.9mph /  9.5km/h 11.5mph /  18.5km/h 52% 0.04in /  1.0mm CLR
18:20 59.4 °F /  15.2 °C 42.3 °F /  5.7 °C 29.6in /  1003.9hPa NNW 7.6mph /  12.2km/h 8.1mph /  13.0km/h 53% 0.03in /  0.8mm CLR
18:25 59.5 °F /  15.3 °C 41.9 °F /  5.5 °C 29.6in /  1003.9hPa NNW 7.6mph /  12.2km/h 11.5mph /  18.5km/h 52% 0.02in /  0.5mm CLR
18:30 59.4 °F /  15.2 °C 42.3 °F /  5.7 °C 29.6in /  1003.9hPa WNW 5.2mph /  8.4km/h 10.4mph /  16.7km/h 53% 0.01in /  0.3mm CLR
18:35 59.4 °F /  15.2 °C 41.7 °F /  5.4 °C 29.7in /  1004.3hPa NNW 5.2mph /  8.4km/h 4.6mph /  7.4km/h 52% 0in /  0.0mm CLR
18:40 59.4 °F /  15.2 °C 41.2 °F /  5.1 °C 29.7in /  1004.3hPa NNW 4.7mph /  7.6km/h 5.8mph /  9.3km/h 51% 0in /  0.0mm CLR
18:45 59.2 °F /  15.1 °C 41.2 °F /  5.1 °C 29.7in /  1004.3hPa NNW 4.7mph /  7.6km/h 10.4mph /  16.7km/h 51% 0in /  0.0mm CLR
18:50 59 °F /  15.0 °C 40.5 °F /  4.7 °C 29.7in /  1004.2hPa NNW 4.7mph /  7.6km/h 5.8mph /  9.3km/h 50% 0in /  0.0mm CLR
18:55 58.8 °F /  14.9 °C 40.3 °F /  4.6 °C 29.7in /  1004.2hPa ENE 4.7mph /  7.6km/h 4.6mph /  7.4km/h 50% 0in /  0.0mm CLR
19:00 58.8 °F /  14.9 °C 40.6 °F /  4.8 °C 29.7in /  1004.2hPa NE 2mph /  3.2km/h 5mph /  8.0km/h 51% 0in /  0.0mm CLR
19:05 58.8 °F /  14.9 °C 40.6 °F /  4.8 °C 29.7in /  1004.5hPa ESE 2.9mph /  4.7km/h 4.6mph /  7.4km/h 51% 0in /  0.0mm CLR
19:10 58.8 °F /  14.9 °C 41.7 °F /  5.4 °C 29.7in /  1004.5hPa ESE 2.4mph /  3.9km/h 4.6mph /  7.4km/h 53% 0in /  0.0mm CLR
19:15 58.8 °F /  14.9 °C 42.3 °F /  5.7 °C 29.7in /  1004.5hPa East 2.4mph /  3.9km/h 8.1mph /  13.0km/h 54% 0in /  0.0mm CLR
19:20 58.6 °F /  14.8 °C 43.9 °F /  6.6 °C 29.7in /  1004.4hPa ESE 4mph /  6.4km/h 6.9mph /  11.1km/h 58% 0in /  0.0mm CLR
19:25 58.5 °F /  14.7 °C 45.1 °F /  7.3 °C 29.7in /  1004.4hPa ESE 4mph /  6.4km/h 4.6mph /  7.4km/h 61% 0in /  0.0mm CLR
19:30 58.5 °F /  14.7 °C 45.1 °F /  7.3 °C 29.7in /  1004.4hPa ESE 3.1mph /  5.0km/h 3.5mph /  5.6km/h 61% 0in /  0.0mm CLR
19:35 58.3 °F /  14.6 °C 43.2 °F /  6.2 °C 29.7in /  1004.7hPa ESE 3.1mph /  5.0km/h 3.5mph /  5.6km/h 57% 0in /  0.0mm CLR
19:40 58.3 °F /  14.6 °C 44.4 °F /  6.9 °C 29.7in /  1004.7hPa SE 2mph /  3.2km/h 4.6mph /  7.4km/h 60% 0in /  0.0mm CLR
19:45 58.3 °F /  14.6 °C 45.7 °F /  7.6 °C 29.7in /  1004.7hPa SE 2mph /  3.2km/h 3.5mph /  5.6km/h 63% 0in /  0.0mm CLR
19:50 58.5 °F /  14.7 °C 46.2 °F /  7.9 °C 29.7in /  1004.7hPa SE 2.4mph /  3.9km/h 2.9mph /  4.7km/h 64% 0in /  0.0mm CLR
19:55 58.3 °F /  14.6 °C 45.3 °F /  7.4 °C 29.7in /  1004.7hPa SE 2.4mph /  3.9km/h 4mph /  6.4km/h 62% 0in /  0.0mm CLR
20:00 58.3 °F /  14.6 °C 45.7 °F /  7.6 °C 29.7in /  1004.7hPa SE 2mph /  3.2km/h 5mph /  8.0km/h 63% 0in /  0.0mm CLR
20:05 57.9 °F /  14.4 °C 45.3 °F /  7.4 °C 29.7in /  1004.9hPa WSW 1.8mph /  2.9km/h 4.6mph /  7.4km/h 63% 0in /  0.0mm CLR
20:10 57.9 °F /  14.4 °C 45.3 °F /  7.4 °C 29.7in /  1004.9hPa WSW 2.4mph /  3.9km/h 3.5mph /  5.6km/h 63% 0in /  0.0mm CLR
20:15 57.9 °F /  14.4 °C 44.4 °F /  6.9 °C 29.7in /  1004.9hPa WNW 2.4mph /  3.9km/h 4.6mph /  7.4km/h 61% 0in /  0.0mm CLR
20:20 57.9 °F /  14.4 °C 44.4 °F /  6.9 °C 29.7in /  1004.8hPa WNW 2mph /  3.2km/h 4.6mph /  7.4km/h 61% 0in /  0.0mm CLR
20:25 57.7 °F /  14.3 °C 43.2 °F /  6.2 °C 29.7in /  1004.8hPa WSW 2mph /  3.2km/h 4.6mph /  7.4km/h 58% 0in /  0.0mm CLR
20:30 57.7 °F /  14.3 °C 43.5 °F /  6.4 °C 29.7in /  1004.8hPa SSW 3.1mph /  5.0km/h 4.6mph /  7.4km/h 59% 0in /  0.0mm CLR
20:35 57.9 °F /  14.4 °C 45.3 °F /  7.4 °C 29.7in /  1004.9hPa SSE 3.1mph /  5.0km/h 3.6mph /  5.8km/h 63% 0in /  0.0mm CLR
20:40 57.7 °F /  14.3 °C 46 °F /  7.8 °C 29.7in /  1004.9hPa SW 2.9mph /  4.7km/h 5.4mph /  8.7km/h 65% 0in /  0.0mm CLR
20:45 57.6 °F /  14.2 °C 44.2 °F /  6.8 °C 29.7in /  1004.9hPa SSE 2.9mph /  4.7km/h 4.6mph /  7.4km/h 61% 0in /  0.0mm CLR
20:50 57.6 °F /  14.2 °C 45.1 °F /  7.3 °C 29.7in /  1005.2hPa SSE 3.1mph /  5.0km/h 5.8mph /  9.3km/h 63% 0in /  0.0mm CLR
20:55 57.4 °F /  14.1 °C 42.6 °F /  5.9 °C 29.7in /  1005.2hPa SSW 3.1mph /  5.0km/h 8.1mph /  13.0km/h 58% 0in /  0.0mm CLR
21:00 57.4 °F /  14.1 °C 42.6 °F /  5.9 °C 29.7in /  1005.2hPa SSW 5mph /  8.0km/h 11mph /  17.7km/h 58% 0in /  0.0mm CLR
21:05 57 °F /  13.9 °C 42.8 °F /  6.0 °C 29.7in /  1005.2hPa WSW 4.7mph /  7.6km/h 6.9mph /  11.1km/h 59% 0in /  0.0mm CLR
21:10 57 °F /  13.9 °C 41 °F /  5.0 °C 29.7in /  1005.2hPa SSW 4.7mph /  7.6km/h 8.1mph /  13.0km/h 55% 0in /  0.0mm CLR
21:15 57.2 °F /  14.0 °C 40.6 °F /  4.8 °C 29.7in /  1005.2hPa SW 4.7mph /  7.6km/h 6.9mph /  11.1km/h 54% 0in /  0.0mm CLR
21:20 57.4 °F /  14.1 °C 38.5 °F /  3.6 °C 29.7in /  1005.5hPa SW 5.2mph /  8.4km/h 9.2mph /  14.8km/h 49% 0in /  0.0mm CLR
21:25 57.6 °F /  14.2 °C 37.9 °F /  3.3 °C 29.7in /  1005.5hPa West 5.2mph /  8.4km/h 9.7mph /  15.6km/h 48% 0in /  0.0mm CLR
21:30 57.6 °F /  14.2 °C 37.9 °F /  3.3 °C 29.7in /  1005.5hPa WNW 6.2mph /  10.0km/h 15mph /  24.1km/h 48% 0in /  0.0mm CLR
21:35 57.4 °F /  14.1 °C 38.5 °F /  3.6 °C 29.7in /  1005.7hPa WSW 6.2mph /  10.0km/h 13.8mph /  22.2km/h 49% 0in /  0.0mm CLR
21:40 57.2 °F /  14.0 °C 38.1 °F /  3.4 °C 29.7in /  1005.7hPa WSW 7.6mph /  12.2km/h 8.1mph /  13.0km/h 49% 0in /  0.0mm CLR
21:45 57 °F /  13.9 °C 38.5 °F /  3.6 °C 29.7in /  1005.7hPa WSW 7.6mph /  12.2km/h 8.1mph /  13.0km/h 50% 0in /  0.0mm CLR
21:50 57 °F /  13.9 °C 37.9 °F /  3.3 °C 29.7in /  1005.8hPa SW 5.9mph /  9.5km/h 19.6mph /  31.5km/h 49% 0in /  0.0mm CLR
21:55 56.8 °F /  13.8 °C 37.9 °F /  3.3 °C 29.7in /  1005.8hPa West 5.9mph /  9.5km/h 10.4mph /  16.7km/h 49% 0in /  0.0mm CLR
22:00 56.8 °F /  13.8 °C 37.9 °F /  3.3 °C 29.7in /  1005.8hPa WSW 8mph /  12.9km/h 14mph /  22.5km/h 49% 0in /  0.0mm CLR
22:05 56.7 °F /  13.7 °C 37.8 °F /  3.2 °C 29.7in /  1005.7hPa WSW 8.1mph /  13.0km/h 12.7mph /  20.4km/h 49% 0in /  0.0mm CLR
22:10 56.7 °F /  13.7 °C 37.8 °F /  3.2 °C 29.7in /  1005.7hPa WSW 8.1mph /  13.0km/h 9.2mph /  14.8km/h 49% 0in /  0.0mm CLR
22:15 56.7 °F /  13.7 °C 38.1 °F /  3.4 °C 29.7in /  1005.7hPa SSW 8.1mph /  13.0km/h 10.4mph /  16.7km/h 50% 0in /  0.0mm CLR
22:20 56.5 °F /  13.6 °C 38.7 °F /  3.7 °C 29.7in /  1006.0hPa WSW 6.4mph /  10.3km/h 9.2mph /  14.8km/h 51% 0in /  0.0mm CLR
22:25 56.3 °F /  13.5 °C 38.8 °F /  3.8 °C 29.7in /  1006.0hPa West 6.4mph /  10.3km/h 11.5mph /  18.5km/h 52% 0in /  0.0mm CLR
22:30 56.3 °F /  13.5 °C 38.8 °F /  3.8 °C 29.7in /  1006.0hPa West 5.9mph /  9.5km/h 9.2mph /  14.8km/h 52% 0in /  0.0mm CLR
22:35 56.1 °F /  13.4 °C 39.2 °F /  4.0 °C 29.7in /  1006.3hPa West 5.9mph /  9.5km/h 10.4mph /  16.7km/h 53% 0in /  0.0mm CLR
22:40 56.1 °F /  13.4 °C 39.2 °F /  4.0 °C 29.7in /  1006.3hPa SW 5.4mph /  8.7km/h 8.1mph /  13.0km/h 53% 0in /  0.0mm CLR
22:45 55.9 °F /  13.3 °C 39 °F /  3.9 °C 29.7in /  1006.3hPa SW 5.4mph /  8.7km/h 8.1mph /  13.0km/h 53% 0in /  0.0mm CLR
22:50 55.9 °F /  13.3 °C 38.7 °F /  3.7 °C 29.7in /  1006.6hPa SW 6.2mph /  10.0km/h 11.5mph /  18.5km/h 52% 0in /  0.0mm CLR
22:55 55.9 °F /  13.3 °C 38.7 °F /  3.7 °C 29.7in /  1006.6hPa SW 6.2mph /  10.0km/h 6.9mph /  11.1km/h 52% 0in /  0.0mm CLR
23:00 55.9 °F /  13.3 °C 38.1 °F /  3.4 °C 29.7in /  1006.6hPa WSW 6mph /  9.7km/h 10mph /  16.1km/h 51% 0in /  0.0mm CLR
23:05 55.9 °F /  13.3 °C 37.6 °F /  3.1 °C 29.7in /  1006.5hPa West 5.4mph /  8.7km/h 9.7mph /  15.6km/h 50% 0in /  0.0mm CLR
23:10 55.9 °F /  13.3 °C 37.6 °F /  3.1 °C 29.7in /  1006.5hPa SW 5.4mph /  8.7km/h 10mph /  16.1km/h 50% 0in /  0.0mm CLR
23:15 55.9 °F /  13.3 °C 38.1 °F /  3.4 °C 29.7in /  1006.5hPa SW 5.4mph /  8.7km/h 9.2mph /  14.8km/h 51% 0in /  0.0mm CLR
23:20 55.8 °F /  13.2 °C 38.5 °F /  3.6 °C 29.7in /  1006.4hPa SW 6.4mph /  10.3km/h 10.4mph /  16.7km/h 52% 0in /  0.0mm CLR
23:25 55.8 °F /  13.2 °C 38.5 °F /  3.6 °C 29.7in /  1006.4hPa SSW 6.4mph /  10.3km/h 9.2mph /  14.8km/h 52% 0in /  0.0mm CLR
23:30 55.6 °F /  13.1 °C 38.7 °F /  3.7 °C 29.7in /  1006.4hPa SW 6.4mph /  10.3km/h 8.1mph /  13.0km/h 53% 0in /  0.0mm CLR
23:35 55.6 °F /  13.1 °C 38.7 °F /  3.7 °C 29.7in /  1006.4hPa SSW 6.4mph /  10.3km/h 9.2mph /  14.8km/h 53% 0in /  0.0mm CLR
23:40 55.4 °F /  13.0 °C 39 °F /  3.9 °C 29.7in /  1006.4hPa South 6.2mph /  10.0km/h 8.1mph /  13.0km/h 54% 0in /  0.0mm CLR
23:45 55.2 °F /  12.9 °C 38.8 °F /  3.8 °C 29.7in /  1006.4hPa South 6.2mph /  10.0km/h 9.2mph /  14.8km/h 54% 0in /  0.0mm CLR
23:50 55.2 °F /  12.9 °C 38.8 °F /  3.8 °C 29.7in /  1006.4hPa SSW 6.2mph /  10.0km/h 9.2mph /  14.8km/h 54% 0in /  0.0mm CLR
23:55 55.2 °F /  12.9 °C 38.5 °F /  3.6 °C 29.7in /  1006.4hPa SSW 6.2mph /  10.0km/h 12.7mph /  20.4km/h 53% 0in /  0.0mm CLR
Murcia-Puente Tocinos, España
Compliments of Weather Underground - 2.75 mb

La estación de MeteoMurcia.com, publica sus datos en los siguientes proyectos:

Weather Underground PWS IMURCIAP2 Meteoclimatic www.awekas.at

W3Counter
Web Analytics